sensor_id;sensor_type;location;lat;lon;timestamp;pressure;altitude;pressure_sealevel;temperature;humidity
26839;BME280;40088;51.214;6.786;2023-05-25T00:03:04;102177.91;;;18.71;55.43
26839;BME280;40088;51.214;6.786;2023-05-25T00:13:04;102180.66;;;18.71;55.49
26839;BME280;40088;51.214;6.786;2023-05-25T00:23:05;102167.00;;;18.70;55.32
26839;BME280;40088;51.214;6.786;2023-05-25T00:33:05;102171.69;;;18.69;55.64
26839;BME280;40088;51.214;6.786;2023-05-25T00:43:07;102160.63;;;18.69;55.51
26839;BME280;40088;51.214;6.786;2023-05-25T00:53:09;102157.88;;;18.69;55.52
26839;BME280;40088;51.214;6.786;2023-05-25T01:03:13;102152.34;;;18.69;55.64
26839;BME280;40088;51.214;6.786;2023-05-25T01:13:17;102169.78;;;18.70;55.42
26839;BME280;40088;51.214;6.786;2023-05-25T01:23:21;102174.44;;;18.69;55.48
26839;BME280;40088;51.214;6.786;2023-05-25T01:33:26;102177.19;;;18.69;55.38
26839;BME280;40088;51.214;6.786;2023-05-25T01:43:27;102182.72;;;18.69;55.49
26839;BME280;40088;51.214;6.786;2023-05-25T01:53:36;102176.34;;;18.69;55.52
26839;BME280;40088;51.214;6.786;2023-05-25T02:03:40;102181.00;;;18.68;55.25
26839;BME280;40088;51.214;6.786;2023-05-25T02:13:41;102187.38;;;18.69;55.27
26839;BME280;40088;51.214;6.786;2023-05-25T02:23:42;102177.38;;;18.68;55.15
26839;BME280;40088;51.214;6.786;2023-05-25T02:33:42;102179.25;;;18.67;55.13
26839;BME280;40088;51.214;6.786;2023-05-25T02:43:42;102180.16;;;18.68;55.43
26839;BME280;40088;51.214;6.786;2023-05-25T02:53:42;102192.03;;;18.68;55.56
26839;BME280;40088;51.214;6.786;2023-05-25T03:03:46;102198.44;;;18.69;55.37
26839;BME280;40088;51.214;6.786;2023-05-25T03:13:51;102202.22;;;18.68;55.28
26839;BME280;40088;51.214;6.786;2023-05-25T03:23:51;102217.91;;;18.67;55.37
26839;BME280;40088;51.214;6.786;2023-05-25T03:33:51;102216.03;;;18.68;55.34
26839;BME280;40088;51.214;6.786;2023-05-25T03:43:51;102215.16;;;18.67;55.28
26839;BME280;40088;51.214;6.786;2023-05-25T03:53:52;102215.16;;;18.67;55.30
26839;BME280;40088;51.214;6.786;2023-05-25T04:03:52;102231.72;;;18.67;55.37
26839;BME280;40088;51.214;6.786;2023-05-25T04:13:52;102245.53;;;18.67;55.29
26839;BME280;40088;51.214;6.786;2023-05-25T04:23:53;102247.28;;;18.68;55.33
26839;BME280;40088;51.214;6.786;2023-05-25T04:33:53;102266.75;;;18.67;55.31
26839;BME280;40088;51.214;6.786;2023-05-25T04:43:55;102269.34;;;18.68;55.52
26839;BME280;40088;51.214;6.786;2023-05-25T04:53:55;102279.53;;;18.68;55.36
26839;BME280;40088;51.214;6.786;2023-05-25T05:03:55;102292.47;;;18.67;55.24
26839;BME280;40088;51.214;6.786;2023-05-25T05:13:55;102286.06;;;18.67;55.52
26839;BME280;40088;51.214;6.786;2023-05-25T05:23:56;102291.59;;;18.67;55.51
26839;BME280;40088;51.214;6.786;2023-05-25T05:33:56;102303.50;;;18.67;55.50
26839;BME280;40088;51.214;6.786;2023-05-25T05:43:56;102316.31;;;18.68;55.44
26839;BME280;40088;51.214;6.786;2023-05-25T05:53:57;102327.34;;;18.68;55.59
26839;BME280;40088;51.214;6.786;2023-05-25T06:03:57;102333.88;;;18.67;55.38
26839;BME280;40088;51.214;6.786;2023-05-25T06:13:58;102332.00;;;18.68;55.53
26839;BME280;40088;51.214;6.786;2023-05-25T06:23:59;102349.44;;;18.68;55.54
26839;BME280;40088;51.214;6.786;2023-05-25T06:33:59;102349.44;;;18.68;55.56
26839;BME280;40088;51.214;6.786;2023-05-25T06:44:00;102346.69;;;18.68;55.68
26839;BME280;40088;51.214;6.786;2023-05-25T06:54:00;102362.38;;;18.68;55.72
26839;BME280;40088;51.214;6.786;2023-05-25T07:04:00;102368.75;;;18.68;55.67
26839;BME280;40088;51.214;6.786;2023-05-25T07:14:01;102374.28;;;18.68;55.53
26839;BME280;40088;51.214;6.786;2023-05-25T07:24:04;102377.06;;;18.68;55.60
26839;BME280;40088;51.214;6.786;2023-05-25T07:34:04;102377.91;;;18.69;55.77
26839;BME280;40088;51.214;6.786;2023-05-25T07:44:05;102389.81;;;18.69;56.06
26839;BME280;40088;51.214;6.786;2023-05-25T07:54:05;102382.41;;;18.70;55.71
26839;BME280;40088;51.214;6.786;2023-05-25T08:04:05;102391.72;;;18.69;55.89
26839;BME280;40088;51.214;6.786;2023-05-25T08:14:06;102387.06;;;18.69;55.78
26839;BME280;40088;51.214;6.786;2023-05-25T08:24:06;102398.09;;;18.69;55.83
26839;BME280;40088;51.214;6.786;2023-05-25T08:34:07;102394.47;;;18.69;55.88
26839;BME280;40088;51.214;6.786;2023-05-25T08:44:07;102398.97;;;18.70;55.94
26839;BME280;40088;51.214;6.786;2023-05-25T08:54:09;102396.19;;;18.70;55.90
26839;BME280;40088;51.214;6.786;2023-05-25T09:04:12;102398.97;;;18.70;55.97
26839;BME280;40088;51.214;6.786;2023-05-25T09:14:18;102407.09;;;18.71;55.98
26839;BME280;40088;51.214;6.786;2023-05-25T09:24:18;102405.34;;;18.70;56.11
26839;BME280;40088;51.214;6.786;2023-05-25T09:34:21;102404.47;;;18.70;56.03
26839;BME280;40088;51.214;6.786;2023-05-25T09:44:21;102404.34;;;18.71;55.90
26839;BME280;40088;51.214;6.786;2023-05-25T09:54:22;102408.97;;;18.71;55.98
26839;BME280;40088;51.214;6.786;2023-05-25T10:04:22;102412.63;;;18.71;56.08
26839;BME280;40088;51.214;6.786;2023-05-25T10:14:25;102426.44;;;18.71;56.10
26839;BME280;40088;51.214;6.786;2023-05-25T10:24:33;102417.25;;;18.71;56.18
26839;BME280;40088;51.214;6.786;2023-05-25T10:34:34;102431.94;;;18.71;56.09
26839;BME280;40088;51.214;6.786;2023-05-25T10:44:35;102427.44;;;18.70;56.24
26839;BME280;40088;51.214;6.786;2023-05-25T10:54:35;102434.84;;;18.70;56.09
26839;BME280;40088;51.214;6.786;2023-05-25T11:04:37;102435.56;;;18.72;56.23
26839;BME280;40088;51.214;6.786;2023-05-25T11:14:37;102441.09;;;18.72;56.20
26839;BME280;40088;51.214;6.786;2023-05-25T11:24:41;102436.44;;;18.72;56.38
26839;BME280;40088;51.214;6.786;2023-05-25T11:34:45;102435.56;;;18.72;56.27
26839;BME280;40088;51.214;6.786;2023-05-25T11:44:46;102440.06;;;18.73;56.30
26839;BME280;40088;51.214;6.786;2023-05-25T11:54:47;102428.16;;;18.72;56.37
26839;BME280;40088;51.214;6.786;2023-05-25T12:04:55;102422.63;;;18.72;56.32
26839;BME280;40088;51.214;6.786;2023-05-25T12:14:55;102429.00;;;18.73;56.47
26839;BME280;40088;51.214;6.786;2023-05-25T12:24:56;102403.31;;;18.72;56.49
26839;BME280;40088;51.214;6.786;2023-05-25T12:35:06;102410.53;;;18.73;56.46
26839;BME280;40088;51.214;6.786;2023-05-25T12:45:07;102396.75;;;18.73;56.64
26839;BME280;40088;51.214;6.786;2023-05-25T13:05:28;102393.13;;;18.73;56.60
26839;BME280;40088;51.214;6.786;2023-05-25T13:15:28;102396.75;;;18.73;56.37
26839;BME280;40088;51.214;6.786;2023-05-25T13:25:28;102378.28;;;18.74;56.40
26839;BME280;40088;51.214;6.786;2023-05-25T13:35:29;102376.53;;;18.73;56.48
26839;BME280;40088;51.214;6.786;2023-05-25T13:45:45;102356.19;;;18.74;56.63
26839;BME280;40088;51.214;6.786;2023-05-25T13:55:45;102365.31;;;18.74;56.64
26839;BME280;40088;51.214;6.786;2023-05-25T14:05:45;102357.03;;;18.74;56.51
26839;BME280;40088;51.214;6.786;2023-05-25T14:15:46;102345.13;;;18.74;56.69
26839;BME280;40088;51.214;6.786;2023-05-25T14:25:46;102345.13;;;18.74;56.70
26839;BME280;40088;51.214;6.786;2023-05-25T14:35:47;102350.66;;;18.74;56.69
26839;BME280;40088;51.214;6.786;2023-05-25T14:45:48;102334.09;;;18.74;56.55
26839;BME280;40088;51.214;6.786;2023-05-25T14:55:48;102324.94;;;18.73;56.79
26839;BME280;40088;51.214;6.786;2023-05-25T15:05:48;102340.47;;;18.74;56.85
26839;BME280;40088;51.214;6.786;2023-05-25T15:15:49;102342.38;;;18.74;56.62
26839;BME280;40088;51.214;6.786;2023-05-25T15:25:53;102327.53;;;18.75;56.88
26839;BME280;40088;51.214;6.786;2023-05-25T15:35:53;102310.09;;;18.74;56.86
26839;BME280;40088;51.214;6.786;2023-05-25T15:45:54;102309.06;;;18.76;56.77
26839;BME280;40088;51.214;6.786;2023-05-25T15:55:54;102307.31;;;18.74;56.93
26839;BME280;40088;51.214;6.786;2023-05-25T16:05:54;102300.09;;;18.73;56.76
26839;BME280;40088;51.214;6.786;2023-05-25T16:15:55;102308.19;;;18.75;57.19
26839;BME280;40088;51.214;6.786;2023-05-25T16:25:55;102292.47;;;18.76;57.15
26839;BME280;40088;51.214;6.786;2023-05-25T16:35:55;102299.91;;;18.75;57.00
26839;BME280;40088;51.214;6.786;2023-05-25T16:45:56;102297.16;;;18.75;56.81
26839;BME280;40088;51.214;6.786;2023-05-25T16:55:56;102292.47;;;18.76;56.93
26839;BME280;40088;51.214;6.786;2023-05-25T17:05:56;102303.53;;;18.76;56.92
26839;BME280;40088;51.214;6.786;2023-05-25T17:15:57;102298.00;;;18.76;57.14
26839;BME280;40088;51.214;6.786;2023-05-25T17:25:57;102285.25;;;18.74;57.01
26839;BME280;40088;51.214;6.786;2023-05-25T17:35:57;102294.38;;;18.75;56.97
26839;BME280;40088;51.214;6.786;2023-05-25T17:45:58;102292.47;;;18.76;56.99
26839;BME280;40088;51.214;6.786;2023-05-25T17:55:58;102295.25;;;18.76;57.03
26839;BME280;40088;51.214;6.786;2023-05-25T18:05:59;102300.75;;;18.76;57.35
26839;BME280;40088;51.214;6.786;2023-05-25T18:15:59;102297.16;;;18.75;57.05
26839;BME280;40088;51.214;6.786;2023-05-25T18:25:59;102291.63;;;18.75;57.07
26839;BME280;40088;51.214;6.786;2023-05-25T18:35:59;102298.00;;;18.76;57.29
26839;BME280;40088;51.214;6.786;2023-05-25T18:46:00;102306.28;;;18.76;56.92
26839;BME280;40088;51.214;6.786;2023-05-25T18:56:00;102303.53;;;18.76;57.00
26839;BME280;40088;51.214;6.786;2023-05-25T19:06:01;102311.81;;;18.76;57.04
26839;BME280;40088;51.214;6.786;2023-05-25T19:16:01;102309.91;;;18.76;57.05
26839;BME280;40088;51.214;6.786;2023-05-25T19:26:03;102320.09;;;18.76;57.12
26839;BME280;40088;51.214;6.786;2023-05-25T19:36:03;102324.75;;;18.75;57.16
26839;BME280;40088;51.214;6.786;2023-05-25T19:46:03;102337.53;;;18.76;57.18
26839;BME280;40088;51.214;6.786;2023-05-25T19:56:04;102344.94;;;18.76;56.98
26839;BME280;40088;51.214;6.786;2023-05-25T20:06:04;102353.22;;;18.76;57.07
26839;BME280;40088;51.214;6.786;2023-05-25T20:16:05;102349.63;;;18.75;57.15
26839;BME280;40088;51.214;6.786;2023-05-25T20:26:08;102358.75;;;18.76;57.08
26839;BME280;40088;51.214;6.786;2023-05-25T20:36:09;102349.78;;;18.73;56.97
26839;BME280;40088;51.214;6.786;2023-05-25T20:46:09;102362.56;;;18.74;57.15
26839;BME280;40088;51.214;6.786;2023-05-25T20:56:10;102375.50;;;18.74;57.17
26839;BME280;40088;51.214;6.786;2023-05-25T21:06:10;102381.03;;;18.74;56.97
26839;BME280;40088;51.214;6.786;2023-05-25T21:16:10;102395.53;;;18.76;57.06
26839;BME280;40088;51.214;6.786;2023-05-25T21:26:11;102394.84;;;18.74;57.01
26839;BME280;40088;51.214;6.786;2023-05-25T21:36:14;102400.34;;;18.74;57.04
26839;BME280;40088;51.214;6.786;2023-05-25T21:46:14;102406.75;;;18.74;56.86
26839;BME280;40088;51.214;6.786;2023-05-25T21:56:15;102415.03;;;18.74;56.93
26839;BME280;40088;51.214;6.786;2023-05-25T22:06:15;102415.03;;;18.74;57.02
26839;BME280;40088;51.214;6.786;2023-05-25T22:16:15;102423.31;;;18.74;56.92
26839;BME280;40088;51.214;6.786;2023-05-25T22:26:16;102428.84;;;18.74;56.90
26839;BME280;40088;51.214;6.786;2023-05-25T22:36:16;102440.94;;;18.73;57.00
26839;BME280;40088;51.214;6.786;2023-05-25T22:46:16;102449.22;;;18.73;56.79
26839;BME280;40088;51.214;6.786;2023-05-25T22:56:17;102454.72;;;18.73;56.97
26839;BME280;40088;51.214;6.786;2023-05-25T23:06:17;102459.38;;;18.73;56.73
26839;BME280;40088;51.214;6.786;2023-05-25T23:16:17;102449.22;;;18.73;56.59
26839;BME280;40088;51.214;6.786;2023-05-25T23:26:18;102464.06;;;18.72;56.80
26839;BME280;40088;51.214;6.786;2023-05-25T23:36:19;102456.81;;;18.71;56.69
26839;BME280;40088;51.214;6.786;2023-05-25T23:46:19;102469.56;;;18.72;56.71
26839;BME280;40088;51.214;6.786;2023-05-25T23:56:20;102458.53;;;18.72;56.55
